| time (UTC) | temp C | wind direction | speed KPH | gust KPH | rain 1hr cm | rain 24hr cm | rain mn cm | humidity % | barometer mb |
| 20260507181023 | 9 | 66 | 6.4 | 11.3 | 0.00 | 1.04 | 1.04 | 78 | 1016.1 |
| 20260507180059 | 9 | 36 | 4.8 | 8.0 | 0.00 | 1.04 | 1.04 | 78 | 1016.1 |
| 20260507175026 | 9 | 53 | 4.8 | 9.7 | 0.00 | 1.04 | 1.04 | 77 | 1016.1 |
| 20260507174024 | 10 | 34 | 1.6 | 3.2 | 0.00 | 1.04 | 1.04 | 78 | 1016.1 |
| 20260507173044 | 10 | 40 | 3.2 | 6.4 | 0.00 | 1.04 | 1.04 | 78 | 1016.1 |
| 20260507171537 | 10 | 0 | 1.6 | 4.8 | 0.00 | 1.04 | 1.04 | 78 | 1016.1 |
| 20260507170533 | 10 | 307 | 1.6 | 6.4 | 0.00 | 1.04 | 1.04 | 78 | 1015.1 |
| 20260507165039 | 10 | 8 | 1.6 | 3.2 | 0.00 | 1.04 | 1.04 | 80 | 1015.1 |
| 20260507164041 | 10 | 8 | 1.6 | 4.8 | 0.00 | 1.04 | 1.04 | 79 | 1015.1 |
| 20260507163035 | 10 | 310 | 3.2 | 6.4 | 0.00 | 1.04 | 1.04 | 79 | 1015.1 |
| 20260507162039 | 10 | 14 | 3.2 | 6.4 | 0.00 | 1.04 | 1.04 | 77 | 1015.1 |
| 20260507161107 | 10 | 321 | 1.6 | 8.0 | 0.00 | 1.04 | 1.04 | 79 | 1015.1 |
| 20260507155515 | 10 | 326 | 4.8 | 6.4 | 0.00 | 1.04 | 1.04 | 78 | 1015.1 |
| 20260507154544 | 10 | 304 | 1.6 | 3.2 | 0.10 | 1.04 | 1.04 | 78 | 1015.1 |
| 20260507153030 | 10 | 343 | 3.2 | 6.4 | 0.00 | 0.94 | 0.91 | 77 | 1015.1 |
| 20260507152022 | 10 | 227 | 1.6 | 3.2 | 0.00 | 0.94 | 0.91 | 79 | 1015.1 |
| 20260507151050 | 11 | 1 | 3.2 | 3.2 | 0.00 | 0.94 | 0.91 | 76 | 1015.1 |
| 20260507150043 | 11 | 11 | 0.0 | 1.6 | 0.00 | 0.94 | 0.91 | 76 | 1015.1 |
| 20260507145026 | 11 | 5 | 3.2 | 4.8 | 0.00 | 0.94 | 0.91 | 76 | 1015.1 |
| 20260507144050 | 11 | 342 | 1.6 | 3.2 | 0.10 | 0.94 | 0.91 | 78 | 1014.5 |
| 20260507143026 | 11 | 16 | 3.2 | 4.8 | 0.10 | 0.94 | 0.91 | 78 | 1014.0 |
| 20260507142025 | 11 | 46 | 3.2 | 4.8 | 0.10 | 0.94 | 0.91 | 78 | 1014.0 |
| 20260507141022 | 11 | 11 | 3.2 | 4.8 | 0.10 | 0.94 | 0.91 | 77 | 1014.0 |
| 20260507140024 | 11 | 359 | 4.8 | 4.8 | 0.10 | 0.94 | 0.91 | 76 | 1014.0 |
| 20260507135042 | 11 | 31 | 3.2 | 8.0 | 0.00 | 0.84 | 0.81 | 76 | 1014.0 |
| 20260507134026 | 11 | 46 | 4.8 | 6.4 | 0.00 | 0.84 | 0.81 | 76 | 1014.0 |
| 20260507133036 | 12 | 42 | 1.6 | 6.4 | 0.00 | 0.84 | 0.81 | 76 | 1014.0 |
| 20260507132053 | 12 | 42 | 3.2 | 6.4 | 0.00 | 0.84 | 0.81 | 76 | 1014.0 |
| 20260507131037 | 12 | 328 | 1.6 | 3.2 | 0.00 | 0.84 | 0.81 | 1014.0 | |
| 20260507130020 | 11 | 37 | 1.6 | 3.2 | 0.00 | 0.84 | 0.81 | 75 | 1014.0 |
| 20260507125022 | 11 | 70 | 0.0 | 3.2 | 0.00 | 0.84 | 0.81 | 75 | 1014.0 |
| 20260507124028 | 11 | 61 | 0.0 | 1.6 | 0.10 | 0.84 | 0.81 | 76 | 1014.0 |
| 20260507123018 | 11 | 112 | 0.0 | 0.0 | 0.00 | 0.71 | 0.69 | 77 | 1014.0 |
| 20260507122031 | 11 | 11 | 1.6 | 3.2 | 0.00 | 0.71 | 0.69 | 76 | 1014.0 |
| 20260507121036 | 11 | 340 | 1.6 | 3.2 | 0.00 | 0.71 | 0.69 | 77 | 1013.3 |
| 20260507120016 | 11 | 4 | 3.2 | 3.2 | 0.00 | 0.71 | 0.69 | 75 | 1013.0 |
| 20260507115044 | 12 | 13 | 3.2 | 3.2 | 0.00 | 0.71 | 0.69 | 76 | 1013.0 |
| 20260507114044 | 12 | 46 | 1.6 | 4.8 | 0.00 | 0.71 | 0.69 | 76 | 1013.0 |
| 20260507113023 | 12 | 51 | 3.2 | 4.8 | 0.00 | 0.71 | 0.69 | 76 | 1013.0 |
| 20260507112100 | 12 | 19 | 3.2 | 6.4 | 0.00 | 0.71 | 0.69 | 76 | 1013.0 |
| 20260507111048 | 12 | 344 | 1.6 | 4.8 | 0.00 | 0.71 | 0.69 | 77 | 1013.0 |
| 20260507110119 | 12 | 24 | 3.2 | 6.4 | 0.00 | 0.71 | 0.69 | 76 | 1013.0 |
| 20260507105022 | 12 | 41 | 1.6 | 3.2 | 0.00 | 0.71 | 0.69 | 77 | 1013.0 |
| 20260507104046 | 12 | 6 | 1.6 | 3.2 | 0.10 | 0.71 | 0.69 | 77 | 1013.0 |
| 20260507103044 | 11 | 48 | 3.2 | 3.2 | 0.00 | 0.64 | 0.64 | 77 | 1013.0 |
| 20260507102028 | 11 | 26 | 3.2 | 3.2 | 0.00 | 0.64 | 0.64 | 77 | 1013.0 |
| 20260507101044 | 11 | 20 | 1.6 | 3.2 | 0.00 | 0.64 | 0.64 | 76 | 1013.0 |
| 20260507100015 | 11 | 55 | 3.2 | 3.2 | 0.00 | 0.64 | 0.64 | 76 | 1013.0 |
| 20260507095036 | 11 | 24 | 3.2 | 3.2 | 0.00 | 0.64 | 0.64 | 76 | 1012.0 |
| 20260507094102 | 11 | 54 | 4.8 | 6.4 | 0.00 | 0.64 | 0.64 | 76 | 1012.0 |
| 20260507093028 | 11 | 21 | 3.2 | 4.8 | 0.00 | 0.64 | 0.64 | 75 | 1012.0 |
| 20260507092048 | 12 | 41 | 3.2 | 4.8 | 0.00 | 0.64 | 0.64 | 75 | 1012.0 |
| 20260507091104 | 12 | 15 | 3.2 | 3.2 | 0.00 | 0.64 | 0.64 | 76 | 1012.0 |
| 20260507090320 | 12 | 348 | 0.0 | 3.2 | 0.00 | 0.64 | 0.64 | 76 | 1012.0 |
| 20260507085024 | 12 | 82 | 1.6 | 4.8 | 0.00 | 0.64 | 0.64 | 78 | 1012.0 |
| 20260507084041 | 12 | 28 | 0.0 | 3.2 | 0.00 | 0.64 | 0.64 | 78 | 1011.5 |
| 20260507083100 | 11 | 29 | 1.6 | 4.8 | 0.00 | 0.64 | 0.64 | 79 | 1010.9 |
| 20260507081554 | 11 | 37 | 1.6 | 3.2 | 0.00 | 0.64 | 0.64 | 80 | 1010.9 |
| 20260507080550 | 11 | 11 | 1.6 | 4.8 | 0.00 | 0.64 | 0.64 | 80 | 1010.9 |
| 20260507075539 | 11 | 338 | 0.0 | 1.6 | 0.00 | 0.64 | 0.64 | 80 | 1010.9 |
| 20260507074522 | 11 | 67 | 0.0 | 0.0 | 0.00 | 0.64 | 0.64 | 81 | 1010.9 |
| 20260507073516 | 10 | 90 | 0.0 | 1.6 | 0.00 | 0.64 | 0.64 | 81 | 1010.9 |
| 20260507072602 | 10 | 43 | 1.6 | 3.2 | 0.00 | 0.64 | 0.64 | 83 | 1010.9 |
| 20260507071032 | 10 | 21 | 1.6 | 6.4 | 0.00 | 0.64 | 0.64 | 79 | 1010.9 |
| 20260507070048 | 10 | 41 | 3.2 | 4.8 | 0.00 | 0.64 | 0.64 | 79 | 1010.9 |
| 20260507065042 | 10 | 33 | 1.6 | 3.2 | 0.00 | 0.64 | 0.64 | 79 | 1010.9 |
| 20260507064025 | 10 | 57 | 1.6 | 1.6 | 0.00 | 0.64 | 0.64 | 79 | 1010.9 |
| 20260507063100 | 10 | 27 | 1.6 | 4.8 | 0.00 | 0.64 | 0.64 | 79 | 1010.9 |
| 20260507062110 | 11 | 35 | 0.0 | 3.2 | 0.00 | 0.64 | 0.64 | 79 | 1009.9 |
| 20260507061027 | 11 | 63 | 0.0 | 1.6 | 0.00 | 0.64 | 0.64 | 79 | 1009.9 |
| 20260507060017 | 11 | 33 | 3.2 | 4.8 | 0.00 | 0.64 | 0.64 | 80 | 1009.9 |
| 20260507055016 | 11 | 28 | 3.2 | 4.8 | 0.00 | 0.64 | 0.64 | 80 | 1009.9 |
| 20260507054025 | 11 | 8 | 1.6 | 3.2 | 0.00 | 0.64 | 0.64 | 80 | 1009.9 |
| 20260507053027 | 11 | 18 | 3.2 | 3.2 | 0.00 | 0.64 | 0.64 | 80 | 1009.9 |
| 20260507052029 | 11 | 7 | 1.6 | 1.6 | 0.00 | 0.64 | 0.64 | 82 | 1009.9 |
| 20260507051022 | 11 | 148 | 1.6 | 3.2 | 0.00 | 0.64 | 0.64 | 85 | 1009.9 |
| 20260507050033 | 10 | 211 | 1.6 | 3.2 | 0.00 | 0.64 | 0.64 | 85 | 1009.9 |
| 20260507045031 | 10 | 195 | 0.0 | 1.6 | 0.00 | 0.64 | 0.64 | 84 | 1009.9 |
| 20260507044022 | 10 | 163 | 1.6 | 3.2 | 0.10 | 0.64 | 0.64 | 85 | 1009.9 |
| 20260507043027 | 10 | 162 | 0.0 | 3.2 | 0.10 | 0.64 | 0.64 | 81 | 1009.9 |
| 20260507042055 | 10 | 0.0 | 0.0 | 0.10 | 0.64 | 0.64 | 81 | 1009.9 | |
| 20260507041022 | 10 | 28 | 0.0 | 1.6 | 0.10 | 0.64 | 0.64 | 81 | 1009.9 |
| 20260507040100 | 10 | 0.0 | 0.0 | 0.00 | 0.51 | 0.48 | 83 | 1009.9 | |
| 20260507035047 | 10 | 225 | 0.0 | 1.6 | 0.00 | 0.51 | 0.48 | 83 | 1009.9 |
| 20260507034017 | 10 | 0.0 | 0.0 | 0.00 | 0.51 | 0.48 | 84 | 1009.3 | |
| 20260507033103 | 10 | 135 | 0.0 | 1.6 | 0.00 | 0.51 | 0.48 | 81 | 1008.9 |
| 20260507032036 | 10 | 354 | 1.6 | 3.2 | 0.00 | 0.51 | 0.48 | 81 | 1008.9 |
| 20260507031038 | 10 | 11 | 1.6 | 3.2 | 0.00 | 0.51 | 0.48 | 83 | 1008.9 |
| 20260507025050 | 10 | 272 | 1.6 | 3.2 | 0.00 | 0.51 | 0.48 | 85 | 1008.9 |
| 20260507024034 | 10 | 183 | 1.6 | 3.2 | 0.10 | 0.51 | 0.48 | 83 | 1008.9 |
| 20260507023031 | 10 | 29 | 1.6 | 3.2 | 0.10 | 0.51 | 0.48 | 83 | 1008.9 |
| 20260507022015 | 10 | 276 | 0.0 | 1.6 | 0.10 | 0.51 | 0.48 | 84 | 1008.9 |
| 20260507021116 | 10 | 280 | 0.0 | 1.6 | 0.00 | 0.43 | 0.41 | 80 | 1008.9 |
| 20260507020043 | 10 | 277 | 1.6 | 3.2 | 0.00 | 0.43 | 0.41 | 83 | 1008.9 |
| 20260507015037 | 10 | 238 | 1.6 | 3.2 | 0.00 | 0.43 | 0.41 | 84 | 1008.9 |
| 20260507014017 | 10 | 355 | 4.8 | 9.7 | 0.00 | 0.43 | 0.41 | 81 | 1008.2 |
| 20260507013056 | 10 | 20 | 6.4 | 9.7 | 0.00 | 0.43 | 0.41 | 78 | 1007.8 |
| 20260507012017 | 10 | 38 | 6.4 | 8.0 | 0.00 | 0.43 | 0.41 | 77 | 1007.8 |
| 20260507011057 | 11 | 45 | 6.4 | 11.3 | 0.00 | 0.43 | 0.41 | 76 | 1008.9 |
| 20260507010023 | 11 | 9 | 6.4 | 8.0 | 0.00 | 0.43 | 0.41 | 75 | 1008.9 |
| 20260507005101 | 11 | 34 | 4.8 | 6.4 | 0.00 | 0.43 | 0.41 | 75 | 1008.9 |
| 20260507004026 | 11 | 48 | 4.8 | 8.0 | 0.33 | 0.43 | 0.41 | 75 | 1008.9 |
| 20260507003027 | 11 | 37 | 6.4 | 9.7 | 0.20 | 0.30 | 0.28 | 77 | 1008.9 |
| 20260507002050 | 12 | 278 | 6.4 | 9.7 | 0.10 | 0.20 | 0.18 | 82 | 1008.9 |
| 20260507001114 | 12 | 243 | 3.2 | 3.2 | 0.10 | 0.20 | 0.18 | 80 | 1008.2 |
| 20260507000015 | 12 | 355 | 0.0 | 3.2 | 0.00 | 0.10 | 0.08 | 77 | 1007.8 |
| 20260506235037 | 12 | 0.0 | 0.0 | 0.00 | 0.10 | 0.08 | 79 | 1007.8 | |
| 20260506234044 | 13 | 0.0 | 0.0 | 0.00 | 0.00 | 0.00 | 75 | 1007.8 | |
| 20260506232515 | 12 | 175 | 1.6 | 3.2 | 0.00 | 0.00 | 0.00 | 79 | 1007.8 |
| 20260506231517 | 13 | 0.0 | 0.0 | 0.00 | 0.00 | 0.00 | 75 | 1007.8 | |
| 20260506230539 | 12 | 126 | 1.6 | 6.4 | 0.00 | 0.00 | 0.00 | 79 | 1007.8 |
| 20260506225523 | 13 | 25 | 4.8 | 9.7 | 0.00 | 0.00 | 0.00 | 73 | 1007.8 |
| 20260506224515 | 13 | 66 | 1.6 | 4.8 | 0.00 | 0.43 | 0.00 | 75 | 1007.8 |
| 20260506223525 | 13 | 20 | 1.6 | 3.2 | 0.00 | 0.43 | 0.00 | 75 | 1007.8 |
| 20260506222545 | 13 | 62 | 1.6 | 3.2 | 0.00 | 0.43 | 0.00 | 76 | 1007.8 |
| 20260506221534 | 13 | 51 | 3.2 | 4.8 | 0.00 | 0.43 | 0.00 | 73 | 1007.8 |
| 20260506220534 | 13 | 14 | 1.6 | 4.8 | 0.00 | 0.43 | 0.00 | 75 | 1007.8 |
| 20260506215547 | 13 | 10 | 1.6 | 4.8 | 0.00 | 0.43 | 0.74 | 76 | 1007.8 |
| 20260506214537 | 13 | 268 | 1.6 | 6.4 | 0.00 | 0.86 | 0.74 | 77 | 1007.8 |
| 20260506213523 | 13 | 23 | 4.8 | 8.0 | 0.00 | 0.86 | 0.74 | 74 | 1007.8 |
| 20260506212545 | 13 | 43 | 4.8 | 6.4 | 0.00 | 0.86 | 0.74 | 73 | 1007.8 |
| 20260506211517 | 13 | 37 | 3.2 | 3.2 | 0.00 | 0.86 | 0.74 | 74 | 1007.8 |
| 20260506210557 | 13 | 64 | 4.8 | 8.0 | 0.00 | 0.86 | 0.74 | 73 | 1006.8 |
| 20260506205602 | 13 | 43 | 6.4 | 9.7 | 0.00 | 0.86 | 0.74 | 74 | 1006.8 |
| 20260506204528 | 13 | 13 | 6.4 | 11.3 | 0.00 | 0.86 | 0.74 | 73 | 1006.8 |
| 20260506203523 | 14 | 27 | 6.4 | 9.7 | 0.00 | 0.86 | 0.74 | 72 | 1006.8 |
| 20260506202540 | 14 | 55 | 9.7 | 16.1 | 0.00 | 0.86 | 0.74 | 71 | 1006.8 |
| 20260506201607 | 14 | 46 | 9.7 | 14.5 | 0.00 | 0.86 | 0.74 | 70 | 1006.8 |
| 20260506200523 | 14 | 34 | 9.7 | 16.1 | 0.00 | 0.86 | 0.74 | 70 | 1006.8 |
| 20260506195515 | 15 | 13 | 3.2 | 3.2 | 0.00 | 0.86 | 0.74 | 70 | 1006.8 |
| 20260506194523 | 15 | 24 | 4.8 | 9.7 | 0.00 | 0.86 | 0.74 | 71 | 1006.8 |
| 20260506193520 | 15 | 37 | 8.0 | 9.7 | 0.00 | 0.86 | 0.74 | 69 | 1006.8 |
| 20260506192524 | 15 | 48 | 8.0 | 16.1 | 0.00 | 0.86 | 0.74 | 68 | 1006.8 |
| 20260506191531 | 15 | 41 | 8.0 | 9.7 | 0.00 | 0.86 | 0.74 | 67 | 1006.8 |
| 20260506190547 | 15 | 48 | 6.4 | 9.7 | 0.00 | 0.86 | 0.74 | 66 | 1006.8 |
| 20260506185535 | 15 | 23 | 8.0 | 9.7 | 0.00 | 0.86 | 0.74 | 65 | 1006.8 |
| 20260506184529 | 15 | 32 | 8.0 | 11.3 | 0.00 | 0.86 | 0.74 | 63 | 1006.8 |
| 20260506183546 | 15 | 38 | 8.0 | 11.3 | 0.00 | 0.86 | 0.74 | 61 | 1006.8 |
| 20260506182523 | 16 | 36 | 4.8 | 6.4 | 0.00 | 0.86 | 0.74 | 59 | 1006.8 |
| 20260506181558 | 16 | 57 | 6.4 | 8.0 | 0.00 | 0.86 | 0.74 | 57 | 1006.8 |